createdAt,value
2023-01-03T00:01:46.298Z,45.40
2023-01-03T00:06:52.808Z,45.54
2023-01-03T00:11:56.476Z,45.78
2023-01-03T00:17:01.885Z,45.87
2023-01-03T00:22:05.808Z,45.60
2023-01-03T00:27:09.542Z,45.92
2023-01-03T00:32:13.990Z,46.11
2023-01-03T00:37:17.453Z,46.29
2023-01-03T00:42:20.844Z,46.50
2023-01-03T00:47:24.146Z,46.09
2023-01-03T00:52:27.480Z,46.79
2023-01-03T00:57:31.399Z,46.87
2023-01-03T01:02:34.880Z,46.21
2023-01-03T01:07:38.429Z,46.87
2023-01-03T01:12:41.471Z,46.69
2023-01-03T01:17:44.655Z,46.70
2023-01-03T01:22:48.122Z,46.59
2023-01-03T01:27:51.548Z,46.56
2023-01-03T01:32:55.119Z,47.10
2023-01-03T01:37:58.734Z,47.26
2023-01-03T01:43:22.963Z,46.98
2023-01-03T01:48:27.145Z,47.27
2023-01-03T01:53:34.571Z,47.60
2023-01-03T01:58:41.655Z,47.97
2023-01-03T02:03:48.347Z,47.59
2023-01-03T02:08:51.775Z,47.72
2023-01-03T02:14:01.129Z,48.32
2023-01-03T02:19:51.572Z,48.21
2023-01-03T02:25:16.223Z,48.37
2023-01-03T02:30:33.319Z,48.64
2023-01-03T02:35:53.666Z,48.57
2023-01-03T02:41:07.725Z,48.81
2023-01-03T02:46:27.544Z,48.93
2023-01-03T02:51:39.683Z,49.23
2023-01-03T02:57:15.320Z,49.19
2023-01-03T03:02:21.823Z,48.82
2023-01-03T03:07:33.975Z,49.32
2023-01-03T03:12:42.893Z,49.06
2023-01-03T03:17:47.951Z,48.82
2023-01-03T03:22:57.923Z,49.05
2023-01-03T03:28:06.622Z,49.79
2023-01-03T03:33:14.810Z,49.28
2023-01-03T03:38:28.051Z,49.43
2023-01-03T03:43:40.342Z,49.23
2023-01-03T03:48:55.779Z,49.21
2023-01-03T03:54:03.813Z,50.24
2023-01-03T03:59:10.333Z,49.41
2023-01-03T04:04:25.072Z,49.85
2023-01-03T04:09:28.925Z,50.11
2023-01-03T04:14:32.350Z,49.75
2023-01-03T04:19:35.538Z,50.25
2023-01-03T04:24:39.247Z,50.06
2023-01-03T04:29:42.603Z,50.10
2023-01-03T04:34:46.093Z,49.51
2023-01-03T04:39:49.382Z,49.69
2023-01-03T04:44:53.838Z,50.35
2023-01-03T04:49:59.393Z,50.17
2023-01-03T04:55:03.247Z,50.42
2023-01-03T05:00:07.486Z,49.96
2023-01-03T05:05:11.401Z,50.06
2023-01-03T05:10:15.609Z,49.62
2023-01-03T05:15:19.211Z,50.13
2023-01-03T05:20:24.685Z,49.92
2023-01-03T05:25:28.083Z,50.56
2023-01-03T05:30:31.525Z,50.54
2023-01-03T05:35:35.495Z,50.32
2023-01-03T05:40:41.615Z,50.06
2023-01-03T05:45:50.833Z,50.02
2023-01-03T05:50:58.011Z,49.81
2023-01-03T05:56:06.040Z,50.09
2023-01-03T06:01:10.879Z,49.66
2023-01-03T06:06:16.187Z,49.96
2023-01-03T06:11:20.195Z,49.57
2023-01-03T06:16:25.094Z,49.37
2023-01-03T06:21:28.684Z,49.63
2023-01-03T06:26:32.171Z,49.59
2023-01-03T06:31:35.831Z,49.43
2023-01-03T06:36:39.425Z,49.81
2023-01-03T06:41:43.818Z,49.92
2023-01-03T06:46:47.477Z,49.71
2023-01-03T06:51:51.575Z,49.75
2023-01-03T06:56:56.015Z,49.69
2023-01-03T07:01:59.781Z,49.76
2023-01-03T07:07:03.315Z,49.74
2023-01-03T07:12:06.596Z,49.76
2023-01-03T07:17:10.052Z,50.06
2023-01-03T07:22:13.237Z,49.82
2023-01-03T07:27:16.302Z,49.78
2023-01-03T07:32:20.931Z,49.70
2023-01-03T07:37:24.336Z,49.93
2023-01-03T07:42:28.028Z,49.72
2023-01-03T07:47:32.296Z,49.38
2023-01-03T07:52:35.837Z,48.75
2023-01-03T07:57:40.173Z,48.58
2023-01-03T08:02:43.803Z,48.08
2023-01-03T08:07:51.282Z,47.91
2023-01-03T08:12:54.741Z,47.99
2023-01-03T08:17:58.210Z,48.01
2023-01-03T08:23:01.733Z,47.93
2023-01-03T08:28:07.325Z,48.37
2023-01-03T08:33:14.025Z,48.54
2023-01-03T08:38:28.151Z,48.73
2023-01-03T08:43:35.706Z,48.83
2023-01-03T08:48:39.442Z,48.94
2023-01-03T08:53:43.014Z,48.60
2023-01-03T08:58:46.458Z,48.63
2023-01-03T09:03:53.611Z,48.95
2023-01-03T09:08:57.303Z,49.06
2023-01-03T09:14:00.776Z,49.15
2023-01-03T09:19:04.292Z,48.87
2023-01-03T09:24:12.127Z,48.91
2023-01-03T09:29:16.822Z,48.63
2023-01-03T09:34:20.184Z,48.97
2023-01-03T09:39:24.247Z,48.83
2023-01-03T09:44:29.758Z,48.73
2023-01-03T09:49:57.457Z,48.38
2023-01-03T09:55:28.535Z,48.39
2023-01-03T10:00:43.393Z,48.20
2023-01-03T10:06:11.121Z,48.05
2023-01-03T10:11:53.342Z,47.95
2023-01-03T10:17:14.581Z,48.32
2023-01-03T10:22:21.407Z,48.04
2023-01-03T10:27:28.031Z,47.54
2023-01-03T10:32:37.061Z,47.68
2023-01-03T10:37:41.767Z,48.23
2023-01-03T10:42:46.315Z,47.79
2023-01-03T10:48:00.757Z,47.67
2023-01-03T10:53:09.429Z,47.35
2023-01-03T10:58:30.601Z,47.19
2023-01-03T11:03:38.027Z,46.99
2023-01-03T11:08:49.233Z,47.18
2023-01-03T11:13:52.536Z,46.94
2023-01-03T11:19:04.859Z,47.05
2023-01-03T11:24:44.269Z,46.89
2023-01-03T11:30:09.142Z,46.75
2023-01-03T11:35:48.668Z,47.13
2023-01-03T11:41:14.380Z,46.47
2023-01-03T11:46:50.549Z,46.36
2023-01-03T11:52:27.891Z,46.36
2023-01-03T11:58:02.264Z,46.34
2023-01-03T12:03:41.518Z,46.03
2023-01-03T12:09:03.203Z,45.70
2023-01-03T12:14:12.487Z,45.70
2023-01-03T12:19:30.173Z,45.89
2023-01-03T12:24:52.601Z,45.99
2023-01-03T12:30:08.344Z,45.56
2023-01-03T12:35:20.486Z,45.65
2023-01-03T12:40:29.497Z,45.88
2023-01-03T12:45:42.562Z,45.57
2023-01-03T12:50:53.618Z,45.36
2023-01-03T12:56:23.399Z,45.67
2023-01-03T13:01:42.112Z,45.72
2023-01-03T13:07:14.013Z,45.78
2023-01-03T13:12:21.714Z,45.59
2023-01-03T13:17:27.837Z,45.56
2023-01-03T13:22:34.259Z,45.63
2023-01-03T13:27:48.159Z,45.54
2023-01-03T13:32:54.303Z,46.06
2023-01-03T13:38:11.385Z,45.97
2023-01-03T13:43:23.805Z,45.88
2023-01-03T13:48:33.046Z,46.20
2023-01-03T13:53:39.789Z,46.63
2023-01-03T13:58:51.122Z,46.22
2023-01-03T14:04:26.171Z,46.19
2023-01-03T14:09:46.370Z,46.17
2023-01-03T14:14:57.853Z,46.07
2023-01-03T14:20:13.741Z,46.23
2023-01-03T14:25:42.881Z,45.98
2023-01-03T14:30:56.862Z,46.29
2023-01-03T14:36:07.432Z,45.88
2023-01-03T14:41:31.708Z,45.99
2023-01-03T14:46:36.849Z,45.34
2023-01-03T14:51:40.751Z,45.78
2023-01-03T14:56:47.426Z,45.75
2023-01-03T15:01:51.780Z,45.90
2023-01-03T15:07:06.563Z,46.69
2023-01-03T15:12:17.137Z,46.46
2023-01-03T15:17:26.002Z,45.71
2023-01-03T15:22:40.355Z,47.12
2023-01-03T15:27:46.340Z,50.84
2023-01-03T15:33:04.513Z,54.82
2023-01-03T15:38:39.381Z,55.88
2023-01-03T15:43:42.982Z,53.67
2023-01-03T15:48:55.863Z,51.85
2023-01-03T15:53:59.814Z,50.26
2023-01-03T15:59:08.226Z,49.57
2023-01-03T16:04:12.163Z,49.05
2023-01-03T16:09:15.878Z,48.62
2023-01-03T16:14:23.662Z,47.39
2023-01-03T16:19:28.323Z,47.01
2023-01-03T16:24:32.250Z,46.78
2023-01-03T16:29:35.827Z,46.84
2023-01-03T16:34:40.221Z,46.79
2023-01-03T16:39:47.991Z,47.56
2023-01-03T16:44:52.216Z,48.38
2023-01-03T16:50:02.366Z,50.30
2023-01-03T16:55:25.302Z,51.29
2023-01-03T17:00:31.815Z,50.93
2023-01-03T17:05:37.916Z,49.46
2023-01-03T17:10:41.697Z,48.16
2023-01-03T17:15:45.350Z,47.55
2023-01-03T17:20:53.352Z,49.01
2023-01-03T17:25:57.230Z,55.28
2023-01-03T17:31:02.000Z,57.07
2023-01-03T17:36:09.028Z,57.73
2023-01-03T17:41:22.718Z,56.77
2023-01-03T17:46:29.841Z,57.04
2023-01-03T17:51:36.794Z,57.24
2023-01-03T17:56:48.684Z,57.51
2023-01-03T18:01:54.282Z,58.09
2023-01-03T18:07:01.161Z,59.26
2023-01-03T18:12:04.958Z,60.44
2023-01-03T18:17:37.564Z,60.80
2023-01-03T18:22:42.464Z,61.31
2023-01-03T18:28:02.047Z,61.19
2023-01-03T18:33:05.376Z,61.15
2023-01-03T18:38:18.109Z,60.20
2023-01-03T18:43:22.324Z,60.15
2023-01-03T18:48:25.907Z,59.80
2023-01-03T18:53:33.397Z,59.87
2023-01-03T18:58:40.796Z,58.88
2023-01-03T19:03:44.926Z,58.22
2023-01-03T19:08:49.535Z,57.98
2023-01-03T19:13:53.846Z,57.79
2023-01-03T19:18:57.743Z,57.22
2023-01-03T19:24:12.161Z,56.58
2023-01-03T19:29:25.174Z,57.06
2023-01-03T19:34:28.813Z,56.97
2023-01-03T19:39:37.414Z,57.61
2023-01-03T19:44:42.192Z,57.34
2023-01-03T19:49:46.758Z,56.72
2023-01-03T19:54:50.462Z,56.37
2023-01-03T19:59:57.026Z,56.45
2023-01-03T20:05:02.155Z,55.56
2023-01-03T20:10:08.682Z,54.94
2023-01-03T20:15:23.343Z,54.91
2023-01-03T20:20:34.277Z,53.73
2023-01-03T20:25:38.712Z,53.68
2023-01-03T20:30:43.547Z,52.89
2023-01-03T20:41:16.862Z,51.23
2023-01-03T20:46:22.659Z,50.56
2023-01-03T20:51:26.410Z,49.82
2023-01-03T20:56:30.426Z,49.57
2023-01-03T21:01:34.169Z,49.42
2023-01-03T21:06:38.052Z,48.97
2023-01-03T21:11:41.629Z,48.18
2023-01-03T21:16:46.963Z,47.80
2023-01-03T21:21:57.987Z,47.43
2023-01-03T21:27:04.138Z,47.20
2023-01-03T21:32:11.947Z,47.57
2023-01-03T21:37:15.490Z,46.97
2023-01-03T21:42:20.266Z,46.72
2023-01-03T21:47:23.931Z,46.31
2023-01-03T21:52:27.548Z,46.24
2023-01-03T21:57:31.239Z,46.27
2023-01-03T22:02:35.060Z,46.14
2023-01-03T22:07:38.503Z,46.17
2023-01-03T22:12:49.752Z,45.85
2023-01-03T22:17:54.093Z,45.76
2023-01-03T22:22:57.485Z,45.70
2023-01-03T22:28:00.875Z,45.18
2023-01-03T22:33:04.247Z,45.64
2023-01-03T22:38:12.773Z,45.07
2023-01-03T22:43:16.071Z,45.02
2023-01-03T22:48:19.698Z,45.17
2023-01-03T22:53:23.157Z,44.86
2023-01-03T22:58:26.277Z,45.40
2023-01-03T23:03:29.897Z,45.06
2023-01-03T23:08:34.902Z,45.19
2023-01-03T23:13:38.428Z,45.31
2023-01-03T23:18:41.989Z,45.41
2023-01-03T23:23:50.022Z,45.44
2023-01-03T23:28:57.960Z,45.56
2023-01-03T23:34:02.084Z,45.20
2023-01-03T23:39:05.635Z,45.46
2023-01-03T23:44:14.035Z,45.53
2023-01-03T23:49:17.387Z,45.34
2023-01-03T23:54:20.562Z,45.24
2023-01-03T23:59:23.807Z,45.30
